sensor_id;sensor_type;location;lat;lon;timestamp;P1;durP1;ratioP1;P2;durP2;ratioP2
7239;SDS011;3661;53.288;10.458;2023-07-13T00:02:07;1941.03;;;999.90;;
7239;SDS011;3661;53.288;10.458;2023-07-13T00:04:40;1930.82;;;999.90;;
7239;SDS011;3661;53.288;10.458;2023-07-13T00:07:12;1924.13;;;999.90;;
7239;SDS011;3661;53.288;10.458;2023-07-13T00:09:45;1940.93;;;999.90;;
7239;SDS011;3661;53.288;10.458;2023-07-13T00:12:22;1937.10;;;999.90;;
7239;SDS011;3661;53.288;10.458;2023-07-13T00:14:57;1954.32;;;999.90;;
7239;SDS011;3661;53.288;10.458;2023-07-13T00:17:30;1933.18;;;999.90;;
7239;SDS011;3661;53.288;10.458;2023-07-13T00:20:03;1946.55;;;999.90;;
7239;SDS011;3661;53.288;10.458;2023-07-13T00:22:37;1945.55;;;999.90;;
7239;SDS011;3661;53.288;10.458;2023-07-13T00:25:10;1944.00;;;999.90;;
7239;SDS011;3661;53.288;10.458;2023-07-13T00:27:42;1940.03;;;999.90;;
7239;SDS011;3661;53.288;10.458;2023-07-13T00:30:16;1934.70;;;999.90;;
7239;SDS011;3661;53.288;10.458;2023-07-13T00:32:49;1920.15;;;999.90;;
7239;SDS011;3661;53.288;10.458;2023-07-13T00:35:21;1927.18;;;999.90;;
7239;SDS011;3661;53.288;10.458;2023-07-13T00:37:53;1925.13;;;999.90;;
7239;SDS011;3661;53.288;10.458;2023-07-13T00:40:26;1906.82;;;999.90;;
7239;SDS011;3661;53.288;10.458;2023-07-13T00:42:59;1911.55;;;999.90;;
7239;SDS011;3661;53.288;10.458;2023-07-13T00:48:47;1899.10;;;999.90;;
7239;SDS011;3661;53.288;10.458;2023-07-13T00:51:25;1908.60;;;999.90;;
7239;SDS011;3661;53.288;10.458;2023-07-13T00:54:03;1902.55;;;999.90;;
7239;SDS011;3661;53.288;10.458;2023-07-13T00:56:37;1892.07;;;999.90;;
7239;SDS011;3661;53.288;10.458;2023-07-13T00:59:10;1911.85;;;999.90;;
7239;SDS011;3661;53.288;10.458;2023-07-13T01:01:46;1892.53;;;999.90;;
7239;SDS011;3661;53.288;10.458;2023-07-13T01:04:18;1897.32;;;999.90;;
7239;SDS011;3661;53.288;10.458;2023-07-13T01:06:51;1908.25;;;999.90;;
7239;SDS011;3661;53.288;10.458;2023-07-13T01:09:23;1880.22;;;999.90;;
7239;SDS011;3661;53.288;10.458;2023-07-13T01:11:57;1903.70;;;999.90;;
7239;SDS011;3661;53.288;10.458;2023-07-13T01:14:29;1911.00;;;999.90;;
7239;SDS011;3661;53.288;10.458;2023-07-13T01:17:03;1880.03;;;999.90;;
7239;SDS011;3661;53.288;10.458;2023-07-13T01:19:36;1875.55;;;999.90;;
7239;SDS011;3661;53.288;10.458;2023-07-13T01:22:11;1902.82;;;999.90;;
7239;SDS011;3661;53.288;10.458;2023-07-13T01:24:46;1874.78;;;999.90;;
7239;SDS011;3661;53.288;10.458;2023-07-13T01:27:20;1869.43;;;999.90;;
7239;SDS011;3661;53.288;10.458;2023-07-13T01:29:55;1863.65;;;999.90;;
7239;SDS011;3661;53.288;10.458;2023-07-13T01:32:32;1863.15;;;999.90;;
7239;SDS011;3661;53.288;10.458;2023-07-13T01:35:04;1892.25;;;999.90;;
7239;SDS011;3661;53.288;10.458;2023-07-13T01:37:38;1887.88;;;999.90;;
7239;SDS011;3661;53.288;10.458;2023-07-13T01:40:10;1857.35;;;999.90;;
7239;SDS011;3661;53.288;10.458;2023-07-13T01:42:43;1869.60;;;999.90;;
7239;SDS011;3661;53.288;10.458;2023-07-13T01:45:15;1872.57;;;999.90;;
7239;SDS011;3661;53.288;10.458;2023-07-13T01:47:47;1870.47;;;999.90;;
7239;SDS011;3661;53.288;10.458;2023-07-13T01:50:19;1850.17;;;999.90;;
7239;SDS011;3661;53.288;10.458;2023-07-13T01:52:53;1871.97;;;999.90;;
7239;SDS011;3661;53.288;10.458;2023-07-13T01:55:25;1860.70;;;999.90;;
7239;SDS011;3661;53.288;10.458;2023-07-13T01:57:57;1846.25;;;999.90;;
7239;SDS011;3661;53.288;10.458;2023-07-13T02:00:30;1846.47;;;999.90;;
7239;SDS011;3661;53.288;10.458;2023-07-13T02:03:02;1859.30;;;999.90;;
7239;SDS011;3661;53.288;10.458;2023-07-13T02:05:35;1845.13;;;999.90;;
7239;SDS011;3661;53.288;10.458;2023-07-13T02:08:09;1853.10;;;999.90;;
7239;SDS011;3661;53.288;10.458;2023-07-13T02:10:41;1849.57;;;999.90;;
7239;SDS011;3661;53.288;10.458;2023-07-13T02:13:13;1827.55;;;999.90;;
7239;SDS011;3661;53.288;10.458;2023-07-13T02:15:45;1821.55;;;999.90;;
7239;SDS011;3661;53.288;10.458;2023-07-13T02:18:17;1839.68;;;999.90;;
7239;SDS011;3661;53.288;10.458;2023-07-13T02:20:49;1828.75;;;999.90;;
7239;SDS011;3661;53.288;10.458;2023-07-13T02:23:23;1829.40;;;999.90;;
7239;SDS011;3661;53.288;10.458;2023-07-13T02:25:55;1836.88;;;999.90;;
7239;SDS011;3661;53.288;10.458;2023-07-13T02:28:27;1816.55;;;999.90;;
7239;SDS011;3661;53.288;10.458;2023-07-13T02:31:06;1802.97;;;999.90;;
7239;SDS011;3661;53.288;10.458;2023-07-13T02:33:39;1828.22;;;999.90;;
7239;SDS011;3661;53.288;10.458;2023-07-13T02:36:12;1821.50;;;999.90;;
7239;SDS011;3661;53.288;10.458;2023-07-13T02:38:49;1840.30;;;999.90;;
7239;SDS011;3661;53.288;10.458;2023-07-13T02:41:21;1817.40;;;999.90;;
7239;SDS011;3661;53.288;10.458;2023-07-13T02:43:53;1804.78;;;999.90;;
7239;SDS011;3661;53.288;10.458;2023-07-13T02:46:33;1829.78;;;999.90;;
7239;SDS011;3661;53.288;10.458;2023-07-13T02:49:06;1833.13;;;999.90;;
7239;SDS011;3661;53.288;10.458;2023-07-13T02:51:38;1807.90;;;999.90;;
7239;SDS011;3661;53.288;10.458;2023-07-13T02:54:12;1804.47;;;999.90;;
7239;SDS011;3661;53.288;10.458;2023-07-13T02:56:44;1813.53;;;999.90;;
7239;SDS011;3661;53.288;10.458;2023-07-13T02:59:16;1809.40;;;999.90;;
7239;SDS011;3661;53.288;10.458;2023-07-13T03:01:48;1808.90;;;999.90;;
7239;SDS011;3661;53.288;10.458;2023-07-13T03:04:20;1796.30;;;999.90;;
7239;SDS011;3661;53.288;10.458;2023-07-13T03:06:52;1783.30;;;999.90;;
7239;SDS011;3661;53.288;10.458;2023-07-13T03:09:29;1791.43;;;999.90;;
7239;SDS011;3661;53.288;10.458;2023-07-13T03:12:01;1810.30;;;999.90;;
7239;SDS011;3661;53.288;10.458;2023-07-13T03:14:33;1793.63;;;999.90;;
7239;SDS011;3661;53.288;10.458;2023-07-13T03:17:06;1765.93;;;999.90;;
7239;SDS011;3661;53.288;10.458;2023-07-13T03:19:38;1791.57;;;999.90;;
7239;SDS011;3661;53.288;10.458;2023-07-13T03:22:10;1772.97;;;999.90;;
7239;SDS011;3661;53.288;10.458;2023-07-13T03:24:43;1783.45;;;999.90;;
7239;SDS011;3661;53.288;10.458;2023-07-13T03:27:16;1773.45;;;999.90;;
7239;SDS011;3661;53.288;10.458;2023-07-13T03:29:49;1784.27;;;999.90;;
7239;SDS011;3661;53.288;10.458;2023-07-13T03:32:21;1756.68;;;999.90;;
7239;SDS011;3661;53.288;10.458;2023-07-13T03:34:53;1789.47;;;999.90;;
7239;SDS011;3661;53.288;10.458;2023-07-13T03:37:25;1768.88;;;999.90;;
7239;SDS011;3661;53.288;10.458;2023-07-13T03:39:59;1773.13;;;999.90;;
7239;SDS011;3661;53.288;10.458;2023-07-13T03:42:31;1783.40;;;999.90;;
7239;SDS011;3661;53.288;10.458;2023-07-13T03:45:04;1757.32;;;999.90;;
7239;SDS011;3661;53.288;10.458;2023-07-13T03:47:37;1765.75;;;999.90;;
7239;SDS011;3661;53.288;10.458;2023-07-13T03:50:09;1767.50;;;999.90;;
7239;SDS011;3661;53.288;10.458;2023-07-13T03:52:41;1781.20;;;999.90;;
7239;SDS011;3661;53.288;10.458;2023-07-13T03:55:15;1765.30;;;999.90;;
7239;SDS011;3661;53.288;10.458;2023-07-13T03:57:47;1740.57;;;999.90;;
7239;SDS011;3661;53.288;10.458;2023-07-13T04:00:19;1768.50;;;999.90;;
7239;SDS011;3661;53.288;10.458;2023-07-13T04:02:51;1763.32;;;999.90;;
7239;SDS011;3661;53.288;10.458;2023-07-13T04:05:23;1734.55;;;999.90;;
7239;SDS011;3661;53.288;10.458;2023-07-13T04:07:55;1759.60;;;999.90;;
7239;SDS011;3661;53.288;10.458;2023-07-13T04:10:29;1760.43;;;999.90;;
7239;SDS011;3661;53.288;10.458;2023-07-13T04:13:01;1755.40;;;999.90;;
7239;SDS011;3661;53.288;10.458;2023-07-13T04:15:33;1754.38;;;999.90;;
7239;SDS011;3661;53.288;10.458;2023-07-13T04:18:06;1765.22;;;999.90;;
7239;SDS011;3661;53.288;10.458;2023-07-13T04:20:38;1765.88;;;999.90;;
7239;SDS011;3661;53.288;10.458;2023-07-13T04:23:10;1739.80;;;999.90;;
7239;SDS011;3661;53.288;10.458;2023-07-13T04:25:44;1753.20;;;999.90;;
7239;SDS011;3661;53.288;10.458;2023-07-13T04:28:19;1760.18;;;999.90;;
7239;SDS011;3661;53.288;10.458;2023-07-13T04:30:52;1758.43;;;999.90;;
7239;SDS011;3661;53.288;10.458;2023-07-13T04:33:24;1759.40;;;999.90;;
7239;SDS011;3661;53.288;10.458;2023-07-13T04:35:57;1761.10;;;999.90;;
7239;SDS011;3661;53.288;10.458;2023-07-13T04:38:30;1763.55;;;999.90;;
7239;SDS011;3661;53.288;10.458;2023-07-13T04:41:05;1775.60;;;999.90;;
7239;SDS011;3661;53.288;10.458;2023-07-13T04:43:38;1791.30;;;999.90;;
7239;SDS011;3661;53.288;10.458;2023-07-13T04:46:11;1796.40;;;999.90;;
7239;SDS011;3661;53.288;10.458;2023-07-13T04:48:49;1788.30;;;999.90;;
7239;SDS011;3661;53.288;10.458;2023-07-13T04:51:23;1796.50;;;999.90;;
7239;SDS011;3661;53.288;10.458;2023-07-13T04:53:56;1804.15;;;999.90;;
7239;SDS011;3661;53.288;10.458;2023-07-13T04:56:30;1817.97;;;999.90;;
7239;SDS011;3661;53.288;10.458;2023-07-13T04:59:03;1817.53;;;999.90;;
7239;SDS011;3661;53.288;10.458;2023-07-13T05:01:35;1824.75;;;999.90;;
7239;SDS011;3661;53.288;10.458;2023-07-13T05:04:07;1830.27;;;999.90;;
7239;SDS011;3661;53.288;10.458;2023-07-13T05:06:39;1828.17;;;999.90;;
7239;SDS011;3661;53.288;10.458;2023-07-13T05:09:11;1815.93;;;999.90;;
7239;SDS011;3661;53.288;10.458;2023-07-13T05:11:45;1817.93;;;999.90;;
7239;SDS011;3661;53.288;10.458;2023-07-13T05:14:17;1805.82;;;999.90;;
7239;SDS011;3661;53.288;10.458;2023-07-13T05:16:49;1814.80;;;999.90;;
7239;SDS011;3661;53.288;10.458;2023-07-13T05:19:21;1818.78;;;999.90;;
7239;SDS011;3661;53.288;10.458;2023-07-13T05:21:53;1827.57;;;999.90;;
7239;SDS011;3661;53.288;10.458;2023-07-13T05:24:25;1833.28;;;999.90;;
7239;SDS011;3661;53.288;10.458;2023-07-13T05:26:59;1839.53;;;999.90;;
7239;SDS011;3661;53.288;10.458;2023-07-13T05:29:31;1862.00;;;999.90;;
7239;SDS011;3661;53.288;10.458;2023-07-13T05:32:04;1856.43;;;999.90;;
7239;SDS011;3661;53.288;10.458;2023-07-13T05:34:36;1847.80;;;999.90;;
7239;SDS011;3661;53.288;10.458;2023-07-13T05:37:08;1856.60;;;999.90;;
7239;SDS011;3661;53.288;10.458;2023-07-13T05:39:40;1873.68;;;999.90;;
7239;SDS011;3661;53.288;10.458;2023-07-13T05:42:14;1846.55;;;999.90;;
7239;SDS011;3661;53.288;10.458;2023-07-13T05:44:46;1879.57;;;999.90;;
7239;SDS011;3661;53.288;10.458;2023-07-13T05:47:18;1881.10;;;999.90;;
7239;SDS011;3661;53.288;10.458;2023-07-13T05:49:50;1877.82;;;999.90;;
7239;SDS011;3661;53.288;10.458;2023-07-13T05:52:22;1865.25;;;999.90;;
7239;SDS011;3661;53.288;10.458;2023-07-13T05:54:54;1874.78;;;999.90;;
7239;SDS011;3661;53.288;10.458;2023-07-13T05:57:28;1872.97;;;999.90;;
7239;SDS011;3661;53.288;10.458;2023-07-13T06:00:02;1891.60;;;999.90;;
7239;SDS011;3661;53.288;10.458;2023-07-13T06:02:35;1890.15;;;999.90;;
7239;SDS011;3661;53.288;10.458;2023-07-13T06:05:07;1894.85;;;999.90;;
7239;SDS011;3661;53.288;10.458;2023-07-13T06:07:40;1891.70;;;999.90;;
7239;SDS011;3661;53.288;10.458;2023-07-13T06:10:12;1909.90;;;999.90;;
7239;SDS011;3661;53.288;10.458;2023-07-13T06:12:46;1891.90;;;999.90;;
7239;SDS011;3661;53.288;10.458;2023-07-13T06:15:18;1891.78;;;999.90;;
7239;SDS011;3661;53.288;10.458;2023-07-13T06:17:50;1900.43;;;999.90;;
7239;SDS011;3661;53.288;10.458;2023-07-13T06:20:22;1919.80;;;999.90;;
7239;SDS011;3661;53.288;10.458;2023-07-13T06:22:54;1924.07;;;999.90;;
7239;SDS011;3661;53.288;10.458;2023-07-13T06:25:26;1912.68;;;999.90;;
7239;SDS011;3661;53.288;10.458;2023-07-13T06:28:00;1917.25;;;999.90;;
7239;SDS011;3661;53.288;10.458;2023-07-13T06:30:32;1914.13;;;999.90;;
7239;SDS011;3661;53.288;10.458;2023-07-13T06:33:04;1922.60;;;999.90;;
7239;SDS011;3661;53.288;10.458;2023-07-13T06:35:36;1934.45;;;999.90;;
7239;SDS011;3661;53.288;10.458;2023-07-13T06:38:09;1941.15;;;999.90;;
7239;SDS011;3661;53.288;10.458;2023-07-13T06:40:41;1919.90;;;999.90;;
7239;SDS011;3661;53.288;10.458;2023-07-13T06:43:14;1952.53;;;999.90;;
7239;SDS011;3661;53.288;10.458;2023-07-13T06:45:47;1929.82;;;999.90;;
7239;SDS011;3661;53.288;10.458;2023-07-13T06:48:21;1943.25;;;999.90;;
7239;SDS011;3661;53.288;10.458;2023-07-13T06:50:53;1943.85;;;999.90;;
7239;SDS011;3661;53.288;10.458;2023-07-13T06:53:26;1949.83;;;999.90;;
7239;SDS011;3661;53.288;10.458;2023-07-13T06:55:58;1937.32;;;999.90;;
7239;SDS011;3661;53.288;10.458;2023-07-13T06:58:33;1961.53;;;999.90;;
7239;SDS011;3661;53.288;10.458;2023-07-13T07:01:05;1956.97;;;999.90;;
7239;SDS011;3661;53.288;10.458;2023-07-13T07:03:37;1950.10;;;999.90;;
7239;SDS011;3661;53.288;10.458;2023-07-13T07:06:12;1969.53;;;999.90;;
7239;SDS011;3661;53.288;10.458;2023-07-13T07:08:47;1969.63;;;999.90;;
7239;SDS011;3661;53.288;10.458;2023-07-13T07:11:20;1968.83;;;999.90;;
7239;SDS011;3661;53.288;10.458;2023-07-13T07:13:55;1972.90;;;999.90;;
7239;SDS011;3661;53.288;10.458;2023-07-13T07:16:27;1996.07;;;999.90;;
7239;SDS011;3661;53.288;10.458;2023-07-13T07:18:59;1989.40;;;999.90;;
7239;SDS011;3661;53.288;10.458;2023-07-13T07:21:31;1987.80;;;999.90;;
7239;SDS011;3661;53.288;10.458;2023-07-13T07:24:04;1966.78;;;999.90;;
7239;SDS011;3661;53.288;10.458;2023-07-13T07:26:36;1999.90;;;999.90;;
7239;SDS011;3661;53.288;10.458;2023-07-13T07:29:10;1999.90;;;999.90;;
7239;SDS011;3661;53.288;10.458;2023-07-13T07:31:42;1996.03;;;999.90;;
7239;SDS011;3661;53.288;10.458;2023-07-13T07:34:14;1999.90;;;999.90;;
7239;SDS011;3661;53.288;10.458;2023-07-13T07:36:46;1999.90;;;999.90;;
7239;SDS011;3661;53.288;10.458;2023-07-13T07:39:18;1999.03;;;999.90;;
7239;SDS011;3661;53.288;10.458;2023-07-13T07:41:50;1999.90;;;999.90;;
7239;SDS011;3661;53.288;10.458;2023-07-13T07:44:24;1999.90;;;999.90;;
7239;SDS011;3661;53.288;10.458;2023-07-13T07:46:57;1999.90;;;999.90;;
7239;SDS011;3661;53.288;10.458;2023-07-13T07:49:29;1999.90;;;999.90;;
7239;SDS011;3661;53.288;10.458;2023-07-13T07:52:01;1999.90;;;999.90;;
7239;SDS011;3661;53.288;10.458;2023-07-13T07:54:34;1999.90;;;999.90;;
7239;SDS011;3661;53.288;10.458;2023-07-13T07:57:06;1999.90;;;999.90;;
7239;SDS011;3661;53.288;10.458;2023-07-13T07:59:41;1999.90;;;999.90;;
7239;SDS011;3661;53.288;10.458;2023-07-13T08:02:13;1999.90;;;999.90;;
7239;SDS011;3661;53.288;10.458;2023-07-13T08:04:45;1999.90;;;999.90;;
7239;SDS011;3661;53.288;10.458;2023-07-13T08:07:18;1999.90;;;999.90;;
7239;SDS011;3661;53.288;10.458;2023-07-13T08:09:51;1999.90;;;999.90;;
7239;SDS011;3661;53.288;10.458;2023-07-13T08:12:27;1999.90;;;999.90;;
7239;SDS011;3661;53.288;10.458;2023-07-13T08:15:06;1999.90;;;999.90;;
7239;SDS011;3661;53.288;10.458;2023-07-13T08:17:41;1999.90;;;999.90;;
7239;SDS011;3661;53.288;10.458;2023-07-13T08:20:13;1999.90;;;999.90;;
7239;SDS011;3661;53.288;10.458;2023-07-13T08:22:45;1999.90;;;999.90;;
7239;SDS011;3661;53.288;10.458;2023-07-13T08:25:17;1999.90;;;999.90;;
7239;SDS011;3661;53.288;10.458;2023-07-13T08:27:50;1999.90;;;999.90;;
7239;SDS011;3661;53.288;10.458;2023-07-13T08:30:24;1999.90;;;999.90;;
7239;SDS011;3661;53.288;10.458;2023-07-13T08:32:56;1999.90;;;999.90;;
7239;SDS011;3661;53.288;10.458;2023-07-13T08:35:28;1999.90;;;999.90;;
7239;SDS011;3661;53.288;10.458;2023-07-13T08:38:00;1999.90;;;999.90;;
7239;SDS011;3661;53.288;10.458;2023-07-13T08:40:33;1999.90;;;999.90;;
7239;SDS011;3661;53.288;10.458;2023-07-13T08:43:06;1999.90;;;999.90;;
7239;SDS011;3661;53.288;10.458;2023-07-13T08:45:46;1999.90;;;999.90;;
7239;SDS011;3661;53.288;10.458;2023-07-13T08:48:23;1999.90;;;999.90;;
7239;SDS011;3661;53.288;10.458;2023-07-13T08:51:00;1999.90;;;999.90;;
7239;SDS011;3661;53.288;10.458;2023-07-13T08:53:40;1999.90;;;999.90;;
7239;SDS011;3661;53.288;10.458;2023-07-13T08:56:19;1999.90;;;999.90;;
7239;SDS011;3661;53.288;10.458;2023-07-13T08:58:54;1999.90;;;999.90;;
7239;SDS011;3661;53.288;10.458;2023-07-13T09:01:32;1999.90;;;999.90;;
7239;SDS011;3661;53.288;10.458;2023-07-13T09:04:14;1999.90;;;999.90;;
7239;SDS011;3661;53.288;10.458;2023-07-13T09:06:50;1999.90;;;999.90;;
7239;SDS011;3661;53.288;10.458;2023-07-13T09:09:28;1999.90;;;999.90;;
7239;SDS011;3661;53.288;10.458;2023-07-13T09:12:12;1999.90;;;999.90;;
7239;SDS011;3661;53.288;10.458;2023-07-13T09:14:49;1999.90;;;999.90;;
7239;SDS011;3661;53.288;10.458;2023-07-13T09:17:26;1999.90;;;999.90;;
7239;SDS011;3661;53.288;10.458;2023-07-13T09:20:02;1999.90;;;999.90;;
7239;SDS011;3661;53.288;10.458;2023-07-13T09:22:41;1999.90;;;999.90;;
7239;SDS011;3661;53.288;10.458;2023-07-13T09:25:19;1999.90;;;999.90;;
7239;SDS011;3661;53.288;10.458;2023-07-13T09:27:57;1999.90;;;999.90;;
7239;SDS011;3661;53.288;10.458;2023-07-13T09:30:33;1999.90;;;999.90;;
7239;SDS011;3661;53.288;10.458;2023-07-13T09:33:11;1999.90;;;999.90;;
7239;SDS011;3661;53.288;10.458;2023-07-13T09:35:44;1999.90;;;999.90;;
7239;SDS011;3661;53.288;10.458;2023-07-13T09:38:17;1999.90;;;999.90;;
7239;SDS011;3661;53.288;10.458;2023-07-13T09:40:55;1999.90;;;999.90;;
7239;SDS011;3661;53.288;10.458;2023-07-13T09:43:34;1999.90;;;999.90;;
7239;SDS011;3661;53.288;10.458;2023-07-13T09:46:13;1999.90;;;999.90;;
7239;SDS011;3661;53.288;10.458;2023-07-13T09:48:54;1999.90;;;999.90;;
7239;SDS011;3661;53.288;10.458;2023-07-13T09:51:27;1999.90;;;999.90;;
7239;SDS011;3661;53.288;10.458;2023-07-13T09:54:00;1999.90;;;999.90;;
7239;SDS011;3661;53.288;10.458;2023-07-13T09:56:32;1999.90;;;999.90;;
7239;SDS011;3661;53.288;10.458;2023-07-13T09:59:04;1999.90;;;999.90;;
7239;SDS011;3661;53.288;10.458;2023-07-13T10:01:50;1999.90;;;999.90;;
7239;SDS011;3661;53.288;10.458;2023-07-13T10:04:26;1999.90;;;999.90;;
7239;SDS011;3661;53.288;10.458;2023-07-13T10:07:07;1999.90;;;999.90;;
7239;SDS011;3661;53.288;10.458;2023-07-13T10:09:41;1999.90;;;999.90;;
7239;SDS011;3661;53.288;10.458;2023-07-13T10:12:14;1999.90;;;999.90;;
7239;SDS011;3661;53.288;10.458;2023-07-13T10:14:47;1999.90;;;999.90;;
7239;SDS011;3661;53.288;10.458;2023-07-13T10:17:24;1999.90;;;999.90;;
7239;SDS011;3661;53.288;10.458;2023-07-13T10:20:03;1999.90;;;999.90;;
7239;SDS011;3661;53.288;10.458;2023-07-13T10:22:43;1999.90;;;999.90;;
7239;SDS011;3661;53.288;10.458;2023-07-13T10:25:19;1999.90;;;999.90;;
7239;SDS011;3661;53.288;10.458;2023-07-13T10:27:54;1999.90;;;999.90;;
7239;SDS011;3661;53.288;10.458;2023-07-13T10:30:31;1999.90;;;999.90;;
7239;SDS011;3661;53.288;10.458;2023-07-13T10:33:09;1999.90;;;999.90;;
7239;SDS011;3661;53.288;10.458;2023-07-13T10:35:47;1999.90;;;999.90;;
7239;SDS011;3661;53.288;10.458;2023-07-13T10:38:23;1999.90;;;999.90;;
7239;SDS011;3661;53.288;10.458;2023-07-13T10:41:00;1999.90;;;999.90;;
7239;SDS011;3661;53.288;10.458;2023-07-13T10:43:37;1999.90;;;999.90;;
7239;SDS011;3661;53.288;10.458;2023-07-13T10:46:14;1999.90;;;999.90;;
7239;SDS011;3661;53.288;10.458;2023-07-13T10:48:48;1999.90;;;999.90;;
7239;SDS011;3661;53.288;10.458;2023-07-13T10:51:25;1999.90;;;999.90;;
7239;SDS011;3661;53.288;10.458;2023-07-13T10:59:48;1999.90;;;999.90;;
7239;SDS011;3661;53.288;10.458;2023-07-13T11:02:40;1999.90;;;999.90;;
7239;SDS011;3661;53.288;10.458;2023-07-13T11:05:14;1999.90;;;999.90;;
7239;SDS011;3661;53.288;10.458;2023-07-13T11:08:04;1999.90;;;999.90;;
7239;SDS011;3661;53.288;10.458;2023-07-13T11:10:48;1999.90;;;999.90;;
7239;SDS011;3661;53.288;10.458;2023-07-13T11:16:35;1999.90;;;999.90;;
7239;SDS011;3661;53.288;10.458;2023-07-13T11:19:26;1999.90;;;999.90;;
7239;SDS011;3661;53.288;10.458;2023-07-13T11:22:13;1999.90;;;999.90;;
7239;SDS011;3661;53.288;10.458;2023-07-13T11:24:59;1999.90;;;999.90;;
7239;SDS011;3661;53.288;10.458;2023-07-13T11:31:00;1999.90;;;999.90;;
7239;SDS011;3661;53.288;10.458;2023-07-13T11:33:49;1999.90;;;999.90;;
7239;SDS011;3661;53.288;10.458;2023-07-13T11:36:32;1999.90;;;999.90;;
7239;SDS011;3661;53.288;10.458;2023-07-13T11:39:13;1999.90;;;999.90;;
7239;SDS011;3661;53.288;10.458;2023-07-13T11:41:53;1999.90;;;999.90;;
7239;SDS011;3661;53.288;10.458;2023-07-13T11:44:28;1999.90;;;999.90;;
7239;SDS011;3661;53.288;10.458;2023-07-13T11:47:07;1999.90;;;999.90;;
7239;SDS011;3661;53.288;10.458;2023-07-13T11:49:42;1999.90;;;999.90;;
7239;SDS011;3661;53.288;10.458;2023-07-13T11:52:15;1999.90;;;999.90;;
7239;SDS011;3661;53.288;10.458;2023-07-13T11:54:52;1999.90;;;999.90;;
7239;SDS011;3661;53.288;10.458;2023-07-13T11:57:28;1999.90;;;999.90;;
7239;SDS011;3661;53.288;10.458;2023-07-13T12:00:04;1999.90;;;999.90;;
7239;SDS011;3661;53.288;10.458;2023-07-13T12:02:43;1999.90;;;999.90;;
7239;SDS011;3661;53.288;10.458;2023-07-13T12:05:17;1999.90;;;999.90;;
7239;SDS011;3661;53.288;10.458;2023-07-13T12:07:50;1999.90;;;999.90;;
7239;SDS011;3661;53.288;10.458;2023-07-13T12:10:24;1999.90;;;999.90;;
7239;SDS011;3661;53.288;10.458;2023-07-13T12:13:02;1999.90;;;999.90;;
7239;SDS011;3661;53.288;10.458;2023-07-13T12:15:38;1999.90;;;999.90;;
7239;SDS011;3661;53.288;10.458;2023-07-13T12:18:12;1999.90;;;999.90;;
7239;SDS011;3661;53.288;10.458;2023-07-13T12:20:46;1999.90;;;999.90;;
7239;SDS011;3661;53.288;10.458;2023-07-13T12:23:21;1999.90;;;999.90;;
7239;SDS011;3661;53.288;10.458;2023-07-13T12:25:57;1999.90;;;999.90;;
7239;SDS011;3661;53.288;10.458;2023-07-13T12:28:33;1999.90;;;999.90;;
7239;SDS011;3661;53.288;10.458;2023-07-13T12:31:19;1999.90;;;999.90;;
7239;SDS011;3661;53.288;10.458;2023-07-13T12:33:57;1999.90;;;999.90;;
7239;SDS011;3661;53.288;10.458;2023-07-13T12:36:31;1999.90;;;999.90;;
7239;SDS011;3661;53.288;10.458;2023-07-13T12:39:12;1999.90;;;999.90;;
7239;SDS011;3661;53.288;10.458;2023-07-13T12:41:47;1999.90;;;999.90;;
7239;SDS011;3661;53.288;10.458;2023-07-13T12:44:24;1999.90;;;999.90;;
7239;SDS011;3661;53.288;10.458;2023-07-13T12:47:02;1999.90;;;999.90;;
7239;SDS011;3661;53.288;10.458;2023-07-13T12:49:39;1999.90;;;999.90;;
7239;SDS011;3661;53.288;10.458;2023-07-13T12:52:14;1999.90;;;999.90;;
7239;SDS011;3661;53.288;10.458;2023-07-13T12:54:54;1999.90;;;999.90;;
7239;SDS011;3661;53.288;10.458;2023-07-13T12:57:27;1999.90;;;999.90;;
7239;SDS011;3661;53.288;10.458;2023-07-13T13:00:01;1999.90;;;999.90;;
7239;SDS011;3661;53.288;10.458;2023-07-13T13:02:35;1999.90;;;999.90;;
7239;SDS011;3661;53.288;10.458;2023-07-13T13:05:07;1999.90;;;999.90;;
7239;SDS011;3661;53.288;10.458;2023-07-13T13:07:45;1999.90;;;999.90;;
7239;SDS011;3661;53.288;10.458;2023-07-13T13:10:17;1999.90;;;999.90;;
7239;SDS011;3661;53.288;10.458;2023-07-13T13:12:51;1999.90;;;999.90;;
7239;SDS011;3661;53.288;10.458;2023-07-13T13:15:25;1999.90;;;999.90;;
7239;SDS011;3661;53.288;10.458;2023-07-13T13:17:57;1999.90;;;999.90;;
7239;SDS011;3661;53.288;10.458;2023-07-13T13:20:29;1999.90;;;999.90;;
7239;SDS011;3661;53.288;10.458;2023-07-13T13:23:02;1999.90;;;999.90;;
7239;SDS011;3661;53.288;10.458;2023-07-13T13:25:34;1999.90;;;999.90;;
7239;SDS011;3661;53.288;10.458;2023-07-13T13:28:09;1999.90;;;999.90;;
7239;SDS011;3661;53.288;10.458;2023-07-13T13:30:48;1999.90;;;999.90;;
7239;SDS011;3661;53.288;10.458;2023-07-13T13:33:22;1999.90;;;999.90;;
7239;SDS011;3661;53.288;10.458;2023-07-13T13:35:55;1999.90;;;999.90;;
7239;SDS011;3661;53.288;10.458;2023-07-13T13:38:27;1999.90;;;999.90;;
7239;SDS011;3661;53.288;10.458;2023-07-13T13:40:59;1999.90;;;999.90;;
7239;SDS011;3661;53.288;10.458;2023-07-13T13:43:31;1999.90;;;999.90;;
7239;SDS011;3661;53.288;10.458;2023-07-13T13:46:09;1999.90;;;999.90;;
7239;SDS011;3661;53.288;10.458;2023-07-13T13:48:47;1999.90;;;999.90;;
7239;SDS011;3661;53.288;10.458;2023-07-13T13:51:20;1999.90;;;999.90;;
7239;SDS011;3661;53.288;10.458;2023-07-13T13:53:56;1999.90;;;999.90;;
7239;SDS011;3661;53.288;10.458;2023-07-13T13:56:29;1999.90;;;999.90;;
7239;SDS011;3661;53.288;10.458;2023-07-13T13:59:01;1999.90;;;999.90;;
7239;SDS011;3661;53.288;10.458;2023-07-13T14:01:36;1999.90;;;999.90;;
7239;SDS011;3661;53.288;10.458;2023-07-13T14:04:09;1999.90;;;999.90;;
7239;SDS011;3661;53.288;10.458;2023-07-13T14:06:46;1999.90;;;999.90;;
7239;SDS011;3661;53.288;10.458;2023-07-13T14:09:19;1999.90;;;999.90;;
7239;SDS011;3661;53.288;10.458;2023-07-13T14:11:54;1999.90;;;999.90;;
7239;SDS011;3661;53.288;10.458;2023-07-13T14:14:27;1999.90;;;999.90;;
7239;SDS011;3661;53.288;10.458;2023-07-13T14:17:01;1999.90;;;999.90;;
7239;SDS011;3661;53.288;10.458;2023-07-13T14:19:34;1999.90;;;999.90;;
7239;SDS011;3661;53.288;10.458;2023-07-13T14:22:06;1999.90;;;999.90;;
7239;SDS011;3661;53.288;10.458;2023-07-13T14:24:38;1999.90;;;999.90;;
7239;SDS011;3661;53.288;10.458;2023-07-13T14:27:11;1999.90;;;999.90;;
7239;SDS011;3661;53.288;10.458;2023-07-13T14:29:43;1999.90;;;999.90;;
7239;SDS011;3661;53.288;10.458;2023-07-13T14:32:17;1999.90;;;999.90;;
7239;SDS011;3661;53.288;10.458;2023-07-13T14:34:49;1999.90;;;999.90;;
7239;SDS011;3661;53.288;10.458;2023-07-13T14:37:21;1999.90;;;999.90;;
7239;SDS011;3661;53.288;10.458;2023-07-13T14:39:54;1999.90;;;999.90;;
7239;SDS011;3661;53.288;10.458;2023-07-13T14:42:26;1999.90;;;999.90;;
7239;SDS011;3661;53.288;10.458;2023-07-13T14:44:58;1999.90;;;999.90;;
7239;SDS011;3661;53.288;10.458;2023-07-13T14:47:32;1999.90;;;999.90;;
7239;SDS011;3661;53.288;10.458;2023-07-13T14:50:04;1999.90;;;999.90;;
7239;SDS011;3661;53.288;10.458;2023-07-13T14:52:43;1999.90;;;999.90;;